createdAt,value
2023-05-19T00:07:50.448Z,84
2023-05-19T00:16:05.724Z,86
2023-05-19T00:24:21.028Z,86
2023-05-19T00:32:36.322Z,86.5
2023-05-19T00:40:51.584Z,86.5
2023-05-19T00:49:06.890Z,87
2023-05-19T00:57:22.168Z,85.5
2023-05-19T01:05:37.462Z,85.5
2023-05-19T01:13:52.720Z,84.5
2023-05-19T01:22:08.023Z,83.5
2023-05-19T01:30:23.286Z,85.5
2023-05-19T01:38:38.611Z,85.5
2023-05-19T01:46:53.843Z,86
2023-05-19T01:55:09.100Z,86.5
2023-05-19T02:03:24.356Z,86.5
2023-05-19T02:11:39.619Z,84
2023-05-19T02:19:54.868Z,85
2023-05-19T02:28:10.150Z,85
2023-05-19T02:36:25.353Z,85
2023-05-19T02:44:40.618Z,85.5
2023-05-19T02:52:55.891Z,86
2023-05-19T03:01:11.162Z,86.5
2023-05-19T03:09:26.447Z,86
2023-05-19T03:17:41.714Z,85.5
2023-05-19T03:25:56.986Z,84
2023-05-19T03:34:12.250Z,83.5
2023-05-19T03:42:27.498Z,83.5
2023-05-19T03:50:42.759Z,85.5
2023-05-19T03:58:57.993Z,83.5
2023-05-19T04:07:13.262Z,85
2023-05-19T04:15:28.369Z,85.5
2023-05-19T04:23:43.753Z,84
2023-05-19T04:31:59.001Z,86
2023-05-19T04:40:14.266Z,86
2023-05-19T04:48:29.531Z,85
2023-05-19T04:56:44.804Z,86.5
2023-05-19T05:05:00.092Z,85
2023-05-19T05:13:15.377Z,85.5
2023-05-19T05:21:30.705Z,82
2023-05-19T05:29:46.002Z,82.5
2023-05-19T05:38:01.350Z,82.5
2023-05-19T05:46:16.706Z,81.5
2023-05-19T05:54:32.080Z,81
2023-05-19T06:02:47.464Z,79
2023-05-19T06:11:02.856Z,76
2023-05-19T06:19:18.376Z,73
2023-05-19T06:27:33.972Z,71.5
2023-05-19T06:35:49.572Z,70.5
2023-05-19T06:44:05.230Z,65.5
2023-05-19T06:52:20.968Z,62.5
2023-05-19T07:00:36.769Z,60.5
2023-05-19T07:08:52.640Z,59
2023-05-19T07:17:08.526Z,58
2023-05-19T07:25:24.457Z,53
2023-05-19T07:33:40.340Z,53.5
2023-05-19T07:41:56.194Z,57
2023-05-19T07:50:12.112Z,48
2023-05-19T07:58:27.965Z,52
2023-05-19T08:06:43.785Z,55
2023-05-19T08:14:59.528Z,57.5
2023-05-19T08:23:15.242Z,62
2023-05-19T08:31:30.949Z,64
2023-05-19T08:39:46.551Z,64
2023-05-19T08:48:02.210Z,64.5
2023-05-19T08:56:17.922Z,65
2023-05-19T09:04:33.666Z,61
2023-05-19T09:12:49.799Z,51
2023-05-19T09:21:05.563Z,56.5
2023-05-19T09:29:21.782Z,57.5
2023-05-19T09:37:37.829Z,55.5
2023-05-19T09:45:54.455Z,54
2023-05-19T09:54:11.233Z,52
2023-05-19T10:02:27.836Z,54
2023-05-19T10:10:44.628Z,53.5
2023-05-19T10:19:01.067Z,54
2023-05-19T10:27:17.429Z,58
2023-05-19T10:35:33.658Z,57.5
2023-05-19T10:43:49.839Z,57
2023-05-19T10:52:05.880Z,58
2023-05-19T11:00:21.879Z,58
2023-05-19T11:08:37.654Z,58.5
2023-05-19T11:16:53.693Z,59.5
2023-05-19T11:25:09.579Z,58.5
2023-05-19T11:33:25.308Z,59.5
2023-05-19T11:41:41.190Z,59
2023-05-19T11:49:56.883Z,60
2023-05-19T11:58:12.715Z,54
2023-05-19T12:06:28.439Z,57
2023-05-19T12:14:44.272Z,56.5
2023-05-19T12:22:59.934Z,56
2023-05-19T12:31:15.633Z,58.5
2023-05-19T12:39:31.284Z,55.5
2023-05-19T12:47:46.945Z,54.5
2023-05-19T12:56:02.757Z,54
2023-05-19T13:04:18.223Z,56
2023-05-19T13:12:33.914Z,53.5
2023-05-19T13:20:49.561Z,54.5
2023-05-19T13:29:05.420Z,54
2023-05-19T13:37:21.107Z,53
2023-05-19T13:45:36.851Z,52.5
2023-05-19T13:53:52.404Z,52.5
2023-05-19T14:02:08.090Z,53.5
2023-05-19T14:10:23.683Z,54
2023-05-19T14:18:39.545Z,52.5
2023-05-19T14:26:55.161Z,53
2023-05-19T14:35:10.876Z,53.5
2023-05-19T14:43:26.506Z,54
2023-05-19T14:51:41.965Z,52.5
2023-05-19T14:59:57.865Z,53
2023-05-19T15:08:13.364Z,54
2023-05-19T15:16:28.994Z,55
2023-05-19T15:24:44.420Z,54.5
2023-05-19T15:33:00.216Z,57.5
2023-05-19T15:41:15.603Z,57.5
2023-05-19T15:49:31.363Z,58.5
2023-05-19T15:57:46.760Z,59
2023-05-19T16:06:02.535Z,59
2023-05-19T16:14:18.026Z,61
2023-05-19T16:22:33.578Z,60.5
2023-05-19T16:30:49.034Z,62
2023-05-19T16:39:04.503Z,63
2023-05-19T16:47:20.174Z,62.5
2023-05-19T16:55:35.651Z,61.5
2023-05-19T17:03:51.095Z,62
2023-05-19T17:12:06.623Z,62
2023-05-19T17:20:22.139Z,62
2023-05-19T17:28:37.743Z,62
2023-05-19T17:36:53.309Z,62.5
2023-05-19T17:45:08.668Z,62
2023-05-19T17:53:24.268Z,63
2023-05-19T18:01:39.730Z,64.5
2023-05-19T18:09:55.204Z,65.5
2023-05-19T18:26:24.077Z,66
2023-05-19T18:34:41.480Z,65.5
2023-05-19T18:42:56.786Z,66
2023-05-19T18:51:12.309Z,66
2023-05-19T18:59:27.790Z,66.5
2023-05-19T19:07:43.270Z,67.5
2023-05-19T19:15:58.557Z,67.5
2023-05-19T19:24:14.089Z,68
2023-05-19T19:32:29.446Z,69.5
2023-05-19T19:40:45.047Z,68
2023-05-19T19:49:00.319Z,69.5
2023-05-19T19:57:15.835Z,69
2023-05-19T20:05:31.076Z,70
2023-05-19T20:13:46.690Z,69
2023-05-19T20:22:02.116Z,70
2023-05-19T20:30:17.326Z,71.5
2023-05-19T20:38:32.797Z,71
2023-05-19T20:46:48.218Z,71.5
2023-05-19T20:55:03.435Z,71
2023-05-19T21:03:18.810Z,71
2023-05-19T21:11:34.188Z,71.5
2023-05-19T21:19:49.599Z,71
2023-05-19T21:28:05.038Z,71.5
2023-05-19T21:36:20.525Z,72
2023-05-19T21:44:35.681Z,72
2023-05-19T21:52:51.057Z,72.5
2023-05-19T22:01:06.579Z,72.5
2023-05-19T22:09:21.904Z,73
2023-05-19T22:17:37.126Z,73.5
2023-05-19T22:25:52.722Z,73
2023-05-19T22:34:07.955Z,73
2023-05-19T22:42:23.267Z,73.5
2023-05-19T22:50:38.794Z,74
2023-05-19T22:58:53.891Z,74.5
2023-05-19T23:07:09.426Z,75
2023-05-19T23:15:24.789Z,75
2023-05-19T23:23:39.983Z,76
2023-05-19T23:31:55.267Z,75
2023-05-19T23:40:10.783Z,76
2023-05-19T23:48:25.976Z,75.5
2023-05-19T23:56:41.488Z,76.5
